KPVF

Details ICAO KPVF
Name PLACERVILLE
Region United States
Timezone America/Los_Angeles (UTC-7.0)
Plans Departing 6
Arriving 7
Stats Elevation 2,585 ft / 788 m (AMSL)
Location 38.724219° -120.753327°
Runways 1
Magnetic Variation 13.388° E
Sunrise 2018-05-21 12:47:30 UTC / 2018-05-21 05:47:30 Local
Sunset 2018-05-22 03:14:37 UTC / 2018-05-21 20:14:37 Local
Advertisement - Login to hide

Runways

ID Width Length Bearing (true) Bearing (mag) Surface Threshold Offset Overrun Length
05 75 ft / 23 m 4,196 ft / 1,279 m 62.80° 49.41° Asphalt 0 ft / 0 m 0 ft / 0 m
23 75 ft / 23 m 4,196 ft / 1,279 m 242.81° 229.42° Asphalt 0 ft / 0 m 0 ft / 0 m

Map

Weather


0- 5 10 15 20 25 30 35+ Temperature / ° C

Clouds and Precipitation
Forecast for 2018-05-21 12:00 UTC. Updated 4 hours ago

Ground ~20,000 ft ~40,000 ft Winds

METAR

KPVF 211455Z AUTO 00000KT 10SM CLR 12/08 A2985 RMK AO1

TAF

Not found

Frequencies

Unicom 122.80 MHz CTAF/UNICOM
Approach 127.40 MHz NORCAL APP/DEP
Warning: Do not use this data for real-world aviation or navigation. No guarantee of current accuracy is given.